sensor_id;sensor_type;location;lat;lon;timestamp;temperature;humidity
11140;DHT22;5624;49.388;11.350;2022-09-09T00:02:08;12.30;95.80
11140;DHT22;5624;49.388;11.350;2022-09-09T00:04:40;12.30;95.70
11140;DHT22;5624;49.388;11.350;2022-09-09T00:07:18;12.30;95.40
11140;DHT22;5624;49.388;11.350;2022-09-09T00:12:32;12.10;96.00
11140;DHT22;5624;49.388;11.350;2022-09-09T00:15:05;12.10;95.90
11140;DHT22;5624;49.388;11.350;2022-09-09T00:17:39;12.10;96.00
11140;DHT22;5624;49.388;11.350;2022-09-09T00:20:24;12.20;96.60
11140;DHT22;5624;49.388;11.350;2022-09-09T00:23:12;12.20;96.90
11140;DHT22;5624;49.388;11.350;2022-09-09T00:28:26;12.20;96.90
11140;DHT22;5624;49.388;11.350;2022-09-09T00:30:56;12.20;97.20
11140;DHT22;5624;49.388;11.350;2022-09-09T00:33:23;12.20;97.00
11140;DHT22;5624;49.388;11.350;2022-09-09T00:35:54;12.20;97.30
11140;DHT22;5624;49.388;11.350;2022-09-09T00:38:36;12.30;97.10
11140;DHT22;5624;49.388;11.350;2022-09-09T00:41:17;12.30;96.70
11140;DHT22;5624;49.388;11.350;2022-09-09T00:44:13;12.30;97.00
11140;DHT22;5624;49.388;11.350;2022-09-09T00:57:30;12.00;97.00
11140;DHT22;5624;49.388;11.350;2022-09-09T01:07:52;12.00;97.60
11140;DHT22;5624;49.388;11.350;2022-09-09T01:10:52;12.00;97.90
11140;DHT22;5624;49.388;11.350;2022-09-09T01:13:32;12.10;97.70
11140;DHT22;5624;49.388;11.350;2022-09-09T01:16:00;12.10;97.50
11140;DHT22;5624;49.388;11.350;2022-09-09T01:18:33;12.00;97.50
11140;DHT22;5624;49.388;11.350;2022-09-09T01:21:08;12.00;97.30
11140;DHT22;5624;49.388;11.350;2022-09-09T01:24:07;12.00;97.30
11140;DHT22;5624;49.388;11.350;2022-09-09T01:26:41;12.00;97.50
11140;DHT22;5624;49.388;11.350;2022-09-09T01:29:09;12.00;97.50
11140;DHT22;5624;49.388;11.350;2022-09-09T01:31:41;12.00;97.10
11140;DHT22;5624;49.388;11.350;2022-09-09T01:34:13;12.00;97.70
11140;DHT22;5624;49.388;11.350;2022-09-09T01:36:42;12.10;97.60
11140;DHT22;5624;49.388;11.350;2022-09-09T01:39:08;12.10;97.60
11140;DHT22;5624;49.388;11.350;2022-09-09T01:41:33;12.10;97.40
11140;DHT22;5624;49.388;11.350;2022-09-09T01:43:59;12.10;97.20
11140;DHT22;5624;49.388;11.350;2022-09-09T01:46:25;12.10;97.40
11140;DHT22;5624;49.388;11.350;2022-09-09T01:48:53;12.00;97.80
11140;DHT22;5624;49.388;11.350;2022-09-09T01:51:20;12.10;97.40
11140;DHT22;5624;49.388;11.350;2022-09-09T01:53:46;12.10;97.50
11140;DHT22;5624;49.388;11.350;2022-09-09T02:07:10;12.20;96.90
11140;DHT22;5624;49.388;11.350;2022-09-09T02:09:43;12.30;96.50
11140;DHT22;5624;49.388;11.350;2022-09-09T02:12:13;12.30;96.20
11140;DHT22;5624;49.388;11.350;2022-09-09T02:14:44;12.30;96.10
11140;DHT22;5624;49.388;11.350;2022-09-09T02:17:15;12.40;96.00
11140;DHT22;5624;49.388;11.350;2022-09-09T02:19:46;12.40;95.90
11140;DHT22;5624;49.388;11.350;2022-09-09T02:22:16;12.50;95.50
11140;DHT22;5624;49.388;11.350;2022-09-09T02:24:44;12.50;95.00
11140;DHT22;5624;49.388;11.350;2022-09-09T02:27:12;12.50;94.70
11140;DHT22;5624;49.388;11.350;2022-09-09T02:29:42;12.50;94.70
11140;DHT22;5624;49.388;11.350;2022-09-09T02:32:17;12.50;94.90
11140;DHT22;5624;49.388;11.350;2022-09-09T02:34:47;12.40;95.10
11140;DHT22;5624;49.388;11.350;2022-09-09T02:37:15;12.40;95.30
11140;DHT22;5624;49.388;11.350;2022-09-09T02:39:42;12.40;95.30
11140;DHT22;5624;49.388;11.350;2022-09-09T02:42:08;12.50;94.90
11140;DHT22;5624;49.388;11.350;2022-09-09T02:44:35;12.50;94.90
11140;DHT22;5624;49.388;11.350;2022-09-09T02:50:13;12.60;94.40
11140;DHT22;5624;49.388;11.350;2022-09-09T02:55:55;12.70;94.30
11140;DHT22;5624;49.388;11.350;2022-09-09T02:58:22;12.80;94.20
11140;DHT22;5624;49.388;11.350;2022-09-09T03:00:50;12.70;94.30
11140;DHT22;5624;49.388;11.350;2022-09-09T03:03:17;12.70;93.80
11140;DHT22;5624;49.388;11.350;2022-09-09T03:05:44;12.80;93.50
11140;DHT22;5624;49.388;11.350;2022-09-09T03:08:10;12.80;93.00
11140;DHT22;5624;49.388;11.350;2022-09-09T03:10:36;12.80;92.80
11140;DHT22;5624;49.388;11.350;2022-09-09T03:13:03;12.90;92.70
11140;DHT22;5624;49.388;11.350;2022-09-09T03:15:31;12.90;92.50
11140;DHT22;5624;49.388;11.350;2022-09-09T03:17:58;12.90;92.20
11140;DHT22;5624;49.388;11.350;2022-09-09T03:20:26;12.80;93.00
11140;DHT22;5624;49.388;11.350;2022-09-09T03:22:53;12.70;93.30
11140;DHT22;5624;49.388;11.350;2022-09-09T03:25:19;12.70;93.10
11140;DHT22;5624;49.388;11.350;2022-09-09T03:27:45;12.60;94.10
11140;DHT22;5624;49.388;11.350;2022-09-09T03:30:11;12.60;94.80
11140;DHT22;5624;49.388;11.350;2022-09-09T03:32:37;12.60;94.70
11140;DHT22;5624;49.388;11.350;2022-09-09T03:35:03;12.70;94.60
11140;DHT22;5624;49.388;11.350;2022-09-09T03:37:29;12.70;94.40
11140;DHT22;5624;49.388;11.350;2022-09-09T03:39:54;12.70;94.20
11140;DHT22;5624;49.388;11.350;2022-09-09T03:42:20;12.80;93.80
11140;DHT22;5624;49.388;11.350;2022-09-09T03:44:47;12.70;94.70
11140;DHT22;5624;49.388;11.350;2022-09-09T03:47:18;12.80;93.90
11140;DHT22;5624;49.388;11.350;2022-09-09T03:49:45;12.90;93.30
11140;DHT22;5624;49.388;11.350;2022-09-09T03:52:11;12.80;93.60
11140;DHT22;5624;49.388;11.350;2022-09-09T03:54:37;12.90;93.40
11140;DHT22;5624;49.388;11.350;2022-09-09T03:57:03;12.90;93.40
11140;DHT22;5624;49.388;11.350;2022-09-09T03:59:30;12.80;93.70
11140;DHT22;5624;49.388;11.350;2022-09-09T04:01:56;12.80;93.70
11140;DHT22;5624;49.388;11.350;2022-09-09T04:04:22;12.80;93.40
11140;DHT22;5624;49.388;11.350;2022-09-09T04:06:48;12.90;93.70
11140;DHT22;5624;49.388;11.350;2022-09-09T04:09:14;12.80;93.70
11140;DHT22;5624;49.388;11.350;2022-09-09T04:11:40;12.80;93.90
11140;DHT22;5624;49.388;11.350;2022-09-09T04:14:06;12.90;94.20
11140;DHT22;5624;49.388;11.350;2022-09-09T04:16:32;12.90;93.90
11140;DHT22;5624;49.388;11.350;2022-09-09T04:18:58;13.00;93.60
11140;DHT22;5624;49.388;11.350;2022-09-09T04:21:25;13.00;93.40
11140;DHT22;5624;49.388;11.350;2022-09-09T04:23:51;13.00;93.20
11140;DHT22;5624;49.388;11.350;2022-09-09T04:26:17;13.00;93.80
11140;DHT22;5624;49.388;11.350;2022-09-09T04:28:43;13.10;93.30
11140;DHT22;5624;49.388;11.350;2022-09-09T04:31:15;13.10;92.80
11140;DHT22;5624;49.388;11.350;2022-09-09T04:33:43;13.10;92.60
11140;DHT22;5624;49.388;11.350;2022-09-09T04:36:09;13.10;93.20
11140;DHT22;5624;49.388;11.350;2022-09-09T04:38:35;13.00;93.70
11140;DHT22;5624;49.388;11.350;2022-09-09T04:41:01;13.00;94.00
11140;DHT22;5624;49.388;11.350;2022-09-09T04:43:27;13.10;93.40
11140;DHT22;5624;49.388;11.350;2022-09-09T04:45:53;13.10;93.40
11140;DHT22;5624;49.388;11.350;2022-09-09T04:48:20;13.20;92.80
11140;DHT22;5624;49.388;11.350;2022-09-09T04:51:03;13.20;92.60
11140;DHT22;5624;49.388;11.350;2022-09-09T04:53:31;13.20;92.90
11140;DHT22;5624;49.388;11.350;2022-09-09T04:56:05;13.20;92.80
11140;DHT22;5624;49.388;11.350;2022-09-09T04:58:32;13.30;92.20
11140;DHT22;5624;49.388;11.350;2022-09-09T05:01:06;13.30;92.40
11140;DHT22;5624;49.388;11.350;2022-09-09T05:03:32;13.20;92.60
11140;DHT22;5624;49.388;11.350;2022-09-09T05:08:30;13.30;92.00
11140;DHT22;5624;49.388;11.350;2022-09-09T05:10:56;13.40;91.80
11140;DHT22;5624;49.388;11.350;2022-09-09T05:13:23;13.50;91.20
11140;DHT22;5624;49.388;11.350;2022-09-09T05:15:54;13.60;90.70
11140;DHT22;5624;49.388;11.350;2022-09-09T05:18:20;13.60;90.30
11140;DHT22;5624;49.388;11.350;2022-09-09T05:20:49;13.60;90.50
11140;DHT22;5624;49.388;11.350;2022-09-09T05:23:16;13.60;90.40
11140;DHT22;5624;49.388;11.350;2022-09-09T05:25:43;13.60;90.60
11140;DHT22;5624;49.388;11.350;2022-09-09T05:28:09;13.50;91.30
11140;DHT22;5624;49.388;11.350;2022-09-09T05:30:37;13.60;91.30
11140;DHT22;5624;49.388;11.350;2022-09-09T05:33:02;13.60;92.20
11140;DHT22;5624;49.388;11.350;2022-09-09T05:35:29;13.70;91.80
11140;DHT22;5624;49.388;11.350;2022-09-09T05:37:59;13.80;91.10
11140;DHT22;5624;49.388;11.350;2022-09-09T05:40:25;14.00;90.80
11140;DHT22;5624;49.388;11.350;2022-09-09T05:42:52;14.10;88.80
11140;DHT22;5624;49.388;11.350;2022-09-09T05:45:20;14.20;88.10
11140;DHT22;5624;49.388;11.350;2022-09-09T05:47:52;14.40;88.40
11140;DHT22;5624;49.388;11.350;2022-09-09T05:50:20;14.50;87.90
11140;DHT22;5624;49.388;11.350;2022-09-09T05:52:46;14.70;86.80
11140;DHT22;5624;49.388;11.350;2022-09-09T05:55:13;14.90;85.80
11140;DHT22;5624;49.388;11.350;2022-09-09T05:57:41;15.00;84.40
11140;DHT22;5624;49.388;11.350;2022-09-09T06:00:08;15.10;83.20
11140;DHT22;5624;49.388;11.350;2022-09-09T06:02:34;15.10;83.10
11140;DHT22;5624;49.388;11.350;2022-09-09T06:05:02;15.00;83.10
11140;DHT22;5624;49.388;11.350;2022-09-09T06:07:28;14.90;83.40
11140;DHT22;5624;49.388;11.350;2022-09-09T06:09:53;14.80;84.40
11140;DHT22;5624;49.388;11.350;2022-09-09T06:12:19;14.70;84.20
11140;DHT22;5624;49.388;11.350;2022-09-09T06:14:46;14.60;85.20
11140;DHT22;5624;49.388;11.350;2022-09-09T06:17:11;14.50;85.50
11140;DHT22;5624;49.388;11.350;2022-09-09T06:19:37;14.50;86.70
11140;DHT22;5624;49.388;11.350;2022-09-09T06:22:03;14.40;86.30
11140;DHT22;5624;49.388;11.350;2022-09-09T06:24:28;14.60;85.90
11140;DHT22;5624;49.388;11.350;2022-09-09T06:26:55;14.70;85.30
11140;DHT22;5624;49.388;11.350;2022-09-09T06:29:23;14.80;85.40
11140;DHT22;5624;49.388;11.350;2022-09-09T06:31:49;14.90;84.40
11140;DHT22;5624;49.388;11.350;2022-09-09T06:34:14;15.10;84.00
11140;DHT22;5624;49.388;11.350;2022-09-09T06:36:40;15.60;83.40
11140;DHT22;5624;49.388;11.350;2022-09-09T06:39:06;15.90;80.50
11140;DHT22;5624;49.388;11.350;2022-09-09T06:41:34;16.10;77.90
11140;DHT22;5624;49.388;11.350;2022-09-09T06:44:00;16.30;77.30
11140;DHT22;5624;49.388;11.350;2022-09-09T06:46:28;16.40;77.90
11140;DHT22;5624;49.388;11.350;2022-09-09T06:48:55;16.40;76.00
11140;DHT22;5624;49.388;11.350;2022-09-09T06:51:23;16.40;73.70
11140;DHT22;5624;49.388;11.350;2022-09-09T06:53:57;16.40;75.20
11140;DHT22;5624;49.388;11.350;2022-09-09T06:56:31;16.40;76.40
11140;DHT22;5624;49.388;11.350;2022-09-09T06:58:59;16.30;75.60
11140;DHT22;5624;49.388;11.350;2022-09-09T07:01:28;16.20;76.40
11140;DHT22;5624;49.388;11.350;2022-09-09T07:03:56;16.10;76.20
11140;DHT22;5624;49.388;11.350;2022-09-09T07:06:29;16.20;76.30
11140;DHT22;5624;49.388;11.350;2022-09-09T07:08:59;16.20;76.40
11140;DHT22;5624;49.388;11.350;2022-09-09T07:11:30;16.30;76.10
11140;DHT22;5624;49.388;11.350;2022-09-09T07:13:58;16.50;74.60
11140;DHT22;5624;49.388;11.350;2022-09-09T07:16:24;16.40;74.40
11140;DHT22;5624;49.388;11.350;2022-09-09T07:18:51;16.40;75.80
11140;DHT22;5624;49.388;11.350;2022-09-09T07:21:18;16.40;74.90
11140;DHT22;5624;49.388;11.350;2022-09-09T07:23:44;16.50;73.70
11140;DHT22;5624;49.388;11.350;2022-09-09T07:26:11;16.50;73.40
11140;DHT22;5624;49.388;11.350;2022-09-09T07:28:39;16.40;72.00
11140;DHT22;5624;49.388;11.350;2022-09-09T07:31:05;16.60;74.00
11140;DHT22;5624;49.388;11.350;2022-09-09T07:33:34;16.90;73.50
11140;DHT22;5624;49.388;11.350;2022-09-09T07:36:13;17.20;72.90
11140;DHT22;5624;49.388;11.350;2022-09-09T07:38:44;17.50;69.60
11140;DHT22;5624;49.388;11.350;2022-09-09T07:41:13;17.80;71.70
11140;DHT22;5624;49.388;11.350;2022-09-09T07:43:44;17.90;70.00
11140;DHT22;5624;49.388;11.350;2022-09-09T07:46:11;18.20;69.30
11140;DHT22;5624;49.388;11.350;2022-09-09T07:48:38;18.40;68.50
11140;DHT22;5624;49.388;11.350;2022-09-09T07:51:14;18.40;66.40
11140;DHT22;5624;49.388;11.350;2022-09-09T07:53:44;18.40;66.50
11140;DHT22;5624;49.388;11.350;2022-09-09T07:56:15;18.30;65.30
11140;DHT22;5624;49.388;11.350;2022-09-09T07:58:47;18.10;67.30
11140;DHT22;5624;49.388;11.350;2022-09-09T08:01:17;18.00;67.10
11140;DHT22;5624;49.388;11.350;2022-09-09T08:03:44;18.00;67.00
11140;DHT22;5624;49.388;11.350;2022-09-09T08:06:12;18.00;66.90
11140;DHT22;5624;49.388;11.350;2022-09-09T08:08:40;18.00;68.20
11140;DHT22;5624;49.388;11.350;2022-09-09T08:11:17;18.00;66.70
11140;DHT22;5624;49.388;11.350;2022-09-09T08:13:43;18.00;67.10
11140;DHT22;5624;49.388;11.350;2022-09-09T08:16:26;18.00;66.60
11140;DHT22;5624;49.388;11.350;2022-09-09T08:18:53;18.10;68.60
11140;DHT22;5624;49.388;11.350;2022-09-09T08:21:22;18.70;68.60
11140;DHT22;5624;49.388;11.350;2022-09-09T08:23:50;19.10;65.30
11140;DHT22;5624;49.388;11.350;2022-09-09T08:26:20;19.50;65.20
11140;DHT22;5624;49.388;11.350;2022-09-09T08:28:50;20.30;63.10
11140;DHT22;5624;49.388;11.350;2022-09-09T08:31:22;20.70;60.90
11140;DHT22;5624;49.388;11.350;2022-09-09T08:33:48;21.10;58.10
11140;DHT22;5624;49.388;11.350;2022-09-09T08:36:17;21.30;57.70
11140;DHT22;5624;49.388;11.350;2022-09-09T08:38:46;21.60;58.10
11140;DHT22;5624;49.388;11.350;2022-09-09T08:43:44;23.30;55.30
11140;DHT22;5624;49.388;11.350;2022-09-09T08:46:27;24.30;52.00
11140;DHT22;5624;49.388;11.350;2022-09-09T08:49:02;24.70;47.70
11140;DHT22;5624;49.388;11.350;2022-09-09T08:51:31;24.70;49.70
11140;DHT22;5624;49.388;11.350;2022-09-09T08:54:02;25.30;48.90
11140;DHT22;5624;49.388;11.350;2022-09-09T08:56:32;25.50;47.50
11140;DHT22;5624;49.388;11.350;2022-09-09T08:59:01;25.70;43.40
11140;DHT22;5624;49.388;11.350;2022-09-09T09:12:41;27.00;44.10
11140;DHT22;5624;49.388;11.350;2022-09-09T09:15:21;26.80;42.30
11140;DHT22;5624;49.388;11.350;2022-09-09T09:17:49;26.40;43.30
11140;DHT22;5624;49.388;11.350;2022-09-09T09:20:18;26.20;45.60
11140;DHT22;5624;49.388;11.350;2022-09-09T09:22:48;26.30;43.10
11140;DHT22;5624;49.388;11.350;2022-09-09T09:30:23;26.40;44.40
11140;DHT22;5624;49.388;11.350;2022-09-09T09:33:18;26.40;43.30
11140;DHT22;5624;49.388;11.350;2022-09-09T09:35:45;26.10;45.20
11140;DHT22;5624;49.388;11.350;2022-09-09T09:38:28;26.00;44.30
11140;DHT22;5624;49.388;11.350;2022-09-09T09:40:56;26.00;43.70
11140;DHT22;5624;49.388;11.350;2022-09-09T09:43:36;25.60;42.50
11140;DHT22;5624;49.388;11.350;2022-09-09T09:46:16;24.30;45.60
11140;DHT22;5624;49.388;11.350;2022-09-09T09:48:44;24.70;47.10
11140;DHT22;5624;49.388;11.350;2022-09-09T09:51:14;25.90;43.20
11140;DHT22;5624;49.388;11.350;2022-09-09T09:53:43;26.50;44.80
11140;DHT22;5624;49.388;11.350;2022-09-09T09:56:11;27.70;42.50
11140;DHT22;5624;49.388;11.350;2022-09-09T09:58:55;28.70;41.30
11140;DHT22;5624;49.388;11.350;2022-09-09T10:01:24;28.90;38.00
11140;DHT22;5624;49.388;11.350;2022-09-09T10:03:54;28.90;40.50
11140;DHT22;5624;49.388;11.350;2022-09-09T10:06:34;28.00;40.50
11140;DHT22;5624;49.388;11.350;2022-09-09T10:09:01;27.00;40.50
11140;DHT22;5624;49.388;11.350;2022-09-09T10:12:24;26.70;44.50
11140;DHT22;5624;49.388;11.350;2022-09-09T10:17:33;27.00;40.70
11140;DHT22;5624;49.388;11.350;2022-09-09T10:22:35;27.60;41.00
11140;DHT22;5624;49.388;11.350;2022-09-09T10:25:32;27.60;40.90
11140;DHT22;5624;49.388;11.350;2022-09-09T10:33:51;27.20;42.00
11140;DHT22;5624;49.388;11.350;2022-09-09T10:36:25;27.60;38.30
11140;DHT22;5624;49.388;11.350;2022-09-09T10:39:01;26.60;41.30
11140;DHT22;5624;49.388;11.350;2022-09-09T10:44:41;25.60;44.90
11140;DHT22;5624;49.388;11.350;2022-09-09T10:53:37;24.40;45.90
11140;DHT22;5624;49.388;11.350;2022-09-09T10:56:15;24.00;49.30
11140;DHT22;5624;49.388;11.350;2022-09-09T11:01:59;25.20;46.90
11140;DHT22;5624;49.388;11.350;2022-09-09T11:04:35;25.10;45.90
11140;DHT22;5624;49.388;11.350;2022-09-09T11:07:08;25.60;45.40
11140;DHT22;5624;49.388;11.350;2022-09-09T11:09:46;26.20;44.50
11140;DHT22;5624;49.388;11.350;2022-09-09T11:12:19;25.60;42.10
11140;DHT22;5624;49.388;11.350;2022-09-09T11:15:04;24.80;45.20
11140;DHT22;5624;49.388;11.350;2022-09-09T11:17:44;24.30;47.10
11140;DHT22;5624;49.388;11.350;2022-09-09T11:20:13;23.90;48.40
11140;DHT22;5624;49.388;11.350;2022-09-09T11:22:51;23.60;49.20
11140;DHT22;5624;49.388;11.350;2022-09-09T11:25:32;23.50;49.50
11140;DHT22;5624;49.388;11.350;2022-09-09T11:31:07;23.30;48.80
11140;DHT22;5624;49.388;11.350;2022-09-09T11:36:16;23.10;51.20
11140;DHT22;5624;49.388;11.350;2022-09-09T11:39:00;23.00;50.30
11140;DHT22;5624;49.388;11.350;2022-09-09T11:41:35;23.00;50.80
11140;DHT22;5624;49.388;11.350;2022-09-09T11:44:17;22.90;50.60
11140;DHT22;5624;49.388;11.350;2022-09-09T11:46:49;22.80;52.80
11140;DHT22;5624;49.388;11.350;2022-09-09T11:49:42;22.50;52.50
11140;DHT22;5624;49.388;11.350;2022-09-09T11:52:36;22.30;54.20
11140;DHT22;5624;49.388;11.350;2022-09-09T11:55:28;22.20;56.00
11140;DHT22;5624;49.388;11.350;2022-09-09T12:00:37;21.90;56.80
11140;DHT22;5624;49.388;11.350;2022-09-09T12:03:38;21.80;56.80
11140;DHT22;5624;49.388;11.350;2022-09-09T12:06:32;21.60;56.70
11140;DHT22;5624;49.388;11.350;2022-09-09T12:12:05;21.50;58.10
11140;DHT22;5624;49.388;11.350;2022-09-09T12:14:43;21.50;58.20
11140;DHT22;5624;49.388;11.350;2022-09-09T12:17:24;21.50;57.10
11140;DHT22;5624;49.388;11.350;2022-09-09T12:20:11;21.50;57.00
11140;DHT22;5624;49.388;11.350;2022-09-09T12:33:37;21.00;59.70
11140;DHT22;5624;49.388;11.350;2022-09-09T12:36:13;20.70;64.00
11140;DHT22;5624;49.388;11.350;2022-09-09T12:38:41;20.50;67.10
11140;DHT22;5624;49.388;11.350;2022-09-09T12:41:25;20.30;67.80
11140;DHT22;5624;49.388;11.350;2022-09-09T12:43:51;19.30;63.80
11140;DHT22;5624;49.388;11.350;2022-09-09T12:46:44;18.30;64.80
11140;DHT22;5624;49.388;11.350;2022-09-09T12:49:35;17.70;74.10
11140;DHT22;5624;49.388;11.350;2022-09-09T12:52:07;17.30;76.80
11140;DHT22;5624;49.388;11.350;2022-09-09T12:54:36;16.70;76.90
11140;DHT22;5624;49.388;11.350;2022-09-09T12:57:03;16.40;79.90
11140;DHT22;5624;49.388;11.350;2022-09-09T12:59:38;16.10;79.80
11140;DHT22;5624;49.388;11.350;2022-09-09T13:02:22;15.70;81.60
11140;DHT22;5624;49.388;11.350;2022-09-09T13:04:48;15.40;83.00
11140;DHT22;5624;49.388;11.350;2022-09-09T13:07:17;15.20;84.60
11140;DHT22;5624;49.388;11.350;2022-09-09T13:09:45;15.10;84.60
11140;DHT22;5624;49.388;11.350;2022-09-09T13:12:16;15.10;86.70
11140;DHT22;5624;49.388;11.350;2022-09-09T13:14:47;15.30;84.50
11140;DHT22;5624;49.388;11.350;2022-09-09T13:17:24;15.30;87.40
11140;DHT22;5624;49.388;11.350;2022-09-09T13:19:51;15.50;88.40
11140;DHT22;5624;49.388;11.350;2022-09-09T13:22:37;15.60;87.40
11140;DHT22;5624;49.388;11.350;2022-09-09T13:29:58;16.50;84.80
11140;DHT22;5624;49.388;11.350;2022-09-09T13:32:25;17.40;85.20
11140;DHT22;5624;49.388;11.350;2022-09-09T13:34:57;18.20;82.20
11140;DHT22;5624;49.388;11.350;2022-09-09T13:37:33;18.70;80.70
11140;DHT22;5624;49.388;11.350;2022-09-09T13:40:00;18.90;80.10
11140;DHT22;5624;49.388;11.350;2022-09-09T13:42:32;18.80;79.00
11140;DHT22;5624;49.388;11.350;2022-09-09T13:45:01;18.60;77.50
11140;DHT22;5624;49.388;11.350;2022-09-09T13:47:33;18.60;78.40
11140;DHT22;5624;49.388;11.350;2022-09-09T13:50:23;18.60;79.00
11140;DHT22;5624;49.388;11.350;2022-09-09T13:52:51;18.50;78.50
11140;DHT22;5624;49.388;11.350;2022-09-09T13:55:23;18.30;78.10
11140;DHT22;5624;49.388;11.350;2022-09-09T13:58:00;18.00;79.40
11140;DHT22;5624;49.388;11.350;2022-09-09T14:00:29;17.80;80.40
11140;DHT22;5624;49.388;11.350;2022-09-09T14:02:55;17.60;80.00
11140;DHT22;5624;49.388;11.350;2022-09-09T14:05:22;17.30;82.10
11140;DHT22;5624;49.388;11.350;2022-09-09T14:07:48;17.20;82.50
11140;DHT22;5624;49.388;11.350;2022-09-09T14:10:15;17.00;82.90
11140;DHT22;5624;49.388;11.350;2022-09-09T14:12:41;16.90;83.80
11140;DHT22;5624;49.388;11.350;2022-09-09T14:15:09;17.00;82.70
11140;DHT22;5624;49.388;11.350;2022-09-09T14:17:35;17.00;82.80
11140;DHT22;5624;49.388;11.350;2022-09-09T14:20:03;17.00;85.00
11140;DHT22;5624;49.388;11.350;2022-09-09T14:22:31;17.10;86.00
11140;DHT22;5624;49.388;11.350;2022-09-09T14:24:57;17.00;86.40
11140;DHT22;5624;49.388;11.350;2022-09-09T14:27:23;17.00;86.50
11140;DHT22;5624;49.388;11.350;2022-09-09T14:29:53;17.20;87.30
11140;DHT22;5624;49.388;11.350;2022-09-09T14:32:20;17.60;88.10
11140;DHT22;5624;49.388;11.350;2022-09-09T14:34:46;18.10;85.90
11140;DHT22;5624;49.388;11.350;2022-09-09T14:37:15;18.60;83.70
11140;DHT22;5624;49.388;11.350;2022-09-09T14:39:42;18.90;80.50
11140;DHT22;5624;49.388;11.350;2022-09-09T14:42:12;19.20;78.80
11140;DHT22;5624;49.388;11.350;2022-09-09T14:44:38;19.20;78.50
11140;DHT22;5624;49.388;11.350;2022-09-09T14:47:06;19.30;77.30
11140;DHT22;5624;49.388;11.350;2022-09-09T14:49:36;19.50;76.40
11140;DHT22;5624;49.388;11.350;2022-09-09T14:52:03;19.50;74.60
11140;DHT22;5624;49.388;11.350;2022-09-09T14:54:30;19.60;71.90
11140;DHT22;5624;49.388;11.350;2022-09-09T14:56:57;19.30;70.30
11140;DHT22;5624;49.388;11.350;2022-09-09T14:59:24;18.90;72.70
11140;DHT22;5624;49.388;11.350;2022-09-09T15:01:50;18.60;72.90
11140;DHT22;5624;49.388;11.350;2022-09-09T15:04:16;18.20;73.30
11140;DHT22;5624;49.388;11.350;2022-09-09T15:06:42;18.00;73.80
11140;DHT22;5624;49.388;11.350;2022-09-09T15:09:10;18.00;77.00
11140;DHT22;5624;49.388;11.350;2022-09-09T15:11:37;18.10;79.20
11140;DHT22;5624;49.388;11.350;2022-09-09T15:14:08;18.60;81.40
11140;DHT22;5624;49.388;11.350;2022-09-09T15:16:34;18.90;77.40
11140;DHT22;5624;49.388;11.350;2022-09-09T15:19:01;19.10;74.50
11140;DHT22;5624;49.388;11.350;2022-09-09T15:21:33;19.20;72.00
11140;DHT22;5624;49.388;11.350;2022-09-09T15:24:00;19.20;71.10
11140;DHT22;5624;49.388;11.350;2022-09-09T15:26:26;19.00;71.90
11140;DHT22;5624;49.388;11.350;2022-09-09T15:28:53;18.90;72.10
11140;DHT22;5624;49.388;11.350;2022-09-09T15:31:22;18.60;72.60
11140;DHT22;5624;49.388;11.350;2022-09-09T15:33:50;18.40;75.10
11140;DHT22;5624;49.388;11.350;2022-09-09T15:36:20;18.40;75.60
11140;DHT22;5624;49.388;11.350;2022-09-09T15:38:49;18.30;77.00
11140;DHT22;5624;49.388;11.350;2022-09-09T15:41:16;18.20;78.20
11140;DHT22;5624;49.388;11.350;2022-09-09T15:43:45;18.20;77.60
11140;DHT22;5624;49.388;11.350;2022-09-09T15:48:58;17.90;77.90
11140;DHT22;5624;49.388;11.350;2022-09-09T15:51:25;18.00;78.80
11140;DHT22;5624;49.388;11.350;2022-09-09T15:53:58;18.00;76.20
11140;DHT22;5624;49.388;11.350;2022-09-09T15:56:26;18.00;76.30
11140;DHT22;5624;49.388;11.350;2022-09-09T15:58:57;17.80;77.80
11140;DHT22;5624;49.388;11.350;2022-09-09T16:01:25;17.80;77.10
11140;DHT22;5624;49.388;11.350;2022-09-09T16:03:53;17.80;76.80
11140;DHT22;5624;49.388;11.350;2022-09-09T16:06:24;17.70;79.30
11140;DHT22;5624;49.388;11.350;2022-09-09T16:08:52;17.70;80.60
11140;DHT22;5624;49.388;11.350;2022-09-09T16:11:26;17.70;81.60
11140;DHT22;5624;49.388;11.350;2022-09-09T16:13:54;17.70;81.30
11140;DHT22;5624;49.388;11.350;2022-09-09T16:16:24;17.80;81.20
11140;DHT22;5624;49.388;11.350;2022-09-09T16:18:52;17.90;78.90
11140;DHT22;5624;49.388;11.350;2022-09-09T16:21:25;18.00;80.20
11140;DHT22;5624;49.388;11.350;2022-09-09T16:23:55;18.00;80.10
11140;DHT22;5624;49.388;11.350;2022-09-09T16:26:22;18.00;80.00
11140;DHT22;5624;49.388;11.350;2022-09-09T16:28:49;17.90;80.80
11140;DHT22;5624;49.388;11.350;2022-09-09T16:31:21;17.90;81.40
11140;DHT22;5624;49.388;11.350;2022-09-09T16:33:48;17.90;80.90
11140;DHT22;5624;49.388;11.350;2022-09-09T16:36:18;17.80;81.00
11140;DHT22;5624;49.388;11.350;2022-09-09T16:38:46;17.80;81.00
11140;DHT22;5624;49.388;11.350;2022-09-09T16:41:14;17.80;80.90
11140;DHT22;5624;49.388;11.350;2022-09-09T16:43:40;17.70;79.50
11140;DHT22;5624;49.388;11.350;2022-09-09T16:46:17;17.70;77.70
11140;DHT22;5624;49.388;11.350;2022-09-09T16:48:48;17.60;79.50
11140;DHT22;5624;49.388;11.350;2022-09-09T16:51:29;17.60;81.20
11140;DHT22;5624;49.388;11.350;2022-09-09T16:53:55;17.50;82.70
11140;DHT22;5624;49.388;11.350;2022-09-09T16:56:26;17.40;83.60
11140;DHT22;5624;49.388;11.350;2022-09-09T16:58:57;17.30;84.70
11140;DHT22;5624;49.388;11.350;2022-09-09T17:01:25;17.30;86.00
11140;DHT22;5624;49.388;11.350;2022-09-09T17:03:53;17.30;87.00
11140;DHT22;5624;49.388;11.350;2022-09-09T17:06:19;17.20;87.90
11140;DHT22;5624;49.388;11.350;2022-09-09T17:08:45;17.10;88.60
11140;DHT22;5624;49.388;11.350;2022-09-09T17:11:20;17.00;89.00
11140;DHT22;5624;49.388;11.350;2022-09-09T17:13:47;16.90;89.60
11140;DHT22;5624;49.388;11.350;2022-09-09T17:16:16;16.80;90.40
11140;DHT22;5624;49.388;11.350;2022-09-09T17:18:43;16.80;90.90
11140;DHT22;5624;49.388;11.350;2022-09-09T17:21:17;16.70;91.50
11140;DHT22;5624;49.388;11.350;2022-09-09T17:23:44;16.70;91.80
11140;DHT22;5624;49.388;11.350;2022-09-09T17:26:14;16.50;91.70
11140;DHT22;5624;49.388;11.350;2022-09-09T17:28:42;16.30;92.40
11140;DHT22;5624;49.388;11.350;2022-09-09T17:31:12;16.20;92.60
11140;DHT22;5624;49.388;11.350;2022-09-09T17:33:40;16.10;92.70
11140;DHT22;5624;49.388;11.350;2022-09-09T17:36:16;16.00;92.40
11140;DHT22;5624;49.388;11.350;2022-09-09T17:38:44;15.90;91.60
11140;DHT22;5624;49.388;11.350;2022-09-09T17:43:39;15.90;92.30
11140;DHT22;5624;49.388;11.350;2022-09-09T17:46:08;15.80;90.90
11140;DHT22;5624;49.388;11.350;2022-09-09T17:48:36;15.60;91.00
11140;DHT22;5624;49.388;11.350;2022-09-09T17:51:06;15.60;91.50